Time;durP1;ratioP1;P1;durP2;ratioP2;P2;SDS_P1;SDS_P2;PMS_P1;PMS_P2;Temp;Humidity;BMP_temperature;BMP_pressure;BME280_temperature;BME280_humidity;BME280_pressure;Samples;Min_cycle;Max_cycle;Signal;HPM_P1;HPM_P2
2022/12/04 00:01:13;;;;;;;4.15;2.50;;;;;;;-9.07;65.29;100103.47;4851179;28;20057;-60
2022/12/04 00:07:21;;;;;;;6.65;3.00;;;;;;;-9.13;64.14;100107.38;4898947;28;20095;-61
2022/12/04 00:13:01;;;;;;;5.53;3.22;;;;;;;-9.12;63.46;100114.16;4890502;28;20057;-60
2022/12/04 00:15:48;;;;;;;11.90;4.20;;;;;;;-9.12;63.77;100104.06;4884187;28;20143;-60
2022/12/04 00:18:34;;;;;;;9.57;4.05;;;;;;;-9.03;63.31;100102.88;4881723;28;20130;-60
2022/12/04 00:21:29;;;;;;;8.35;3.30;;;;;;;-8.99;63.36;100104.78;4895976;28;20091;-60
2022/12/04 00:24:21;;;;;;;8.27;3.58;;;;;;;-8.95;62.30;100104.19;4889513;28;20060;-60
2022/12/04 00:27:17;;;;;;;11.30;3.70;;;;;;;-8.95;63.36;100101.66;4885641;28;20056;-61
2022/12/04 00:33:09;;;;;;;6.72;3.30;;;;;;;-8.88;61.66;100103.75;4904773;28;20147;-61
2022/12/04 00:35:40;;;;;;;9.27;3.75;;;;;;;-8.72;61.97;100101.31;4877272;28;20037;-60
2022/12/04 00:38:37;;;;;;;8.65;3.92;;;;;;;-8.50;61.58;100102.56;4913019;28;20249;-61
2022/12/04 00:41:34;;;;;;;6.88;3.28;;;;;;;-8.49;60.70;100071.34;4902535;28;20487;-61
2022/12/04 00:44:23;;;;;;;5.75;3.25;;;;;;;-8.30;60.58;100096.91;4915970;28;20045;-61
2022/12/04 00:47:08;;;;;;;6.28;3.30;;;;;;;-8.20;59.94;100084.75;4932510;28;20045;-61
2022/12/04 00:49:59;;;;;;;6.50;3.30;;;;;;;-8.20;58.25;100087.28;4899694;28;20044;-61
2022/12/04 00:52:42;;;;;;;8.50;3.40;;;;;;;-8.30;59.05;100090.97;4891897;28;20045;-60
2022/12/04 00:55:37;;;;;;;7.28;3.28;;;;;;;-8.95;58.31;99990.25;4909419;28;20045;-61
2022/12/04 00:58:37;;;;;;;6.90;3.20;;;;;;;-8.38;59.57;100067.75;4904035;28;20142;-61
2022/12/04 01:04:49;;;;;;;5.00;2.92;;;;;;;-8.37;57.99;100044.13;4922964;28;20258;-60
2022/12/04 01:07:25;;;;;;;8.85;3.75;;;;;;;-8.24;58.58;100060.88;4913551;28;20056;-61
2022/12/04 01:13:08;;;;;;;10.63;3.05;;;;;;;-7.88;58.66;100056.94;4897296;28;20049;-61
2022/12/04 01:15:52;;;;;;;6.13;2.83;;;;;;;-7.71;58.46;100044.28;4898490;28;20094;-61
2022/12/04 01:18:32;;;;;;;9.43;3.30;;;;;;;-7.79;58.20;100053.16;4898649;28;20068;-61
2022/12/04 01:21:11;;;;;;;4.88;2.92;;;;;;;-7.78;58.09;100067.59;4898881;28;20110;-60
2022/12/04 01:23:53;;;;;;;6.45;2.88;;;;;;;-7.87;55.19;100053.59;4877632;28;20049;-60
2022/12/04 01:26:53;;;;;;;9.63;3.28;;;;;;;-7.75;55.90;100050.00;4900785;28;20072;-60
2022/12/04 01:29:37;;;;;;;6.05;3.17;;;;;;;-7.89;57.80;100039.97;4891758;28;20049;-60
2022/12/04 01:32:22;;;;;;;10.82;3.50;;;;;;;-7.65;57.06;100044.63;4908956;28;20063;-60
2022/12/04 01:35:23;;;;;;;5.72;3.42;;;;;;;-7.91;54.32;100051.72;4926686;28;20108;-60
2022/12/04 01:38:17;;;;;;;5.45;2.80;;;;;;;-8.00;54.37;100041.06;4866238;28;20048;-60
2022/12/04 01:40:52;;;;;;;8.07;2.88;;;;;;;-8.21;54.01;100027.22;4847429;28;20060;-60
2022/12/04 01:46:29;;;;;;;6.32;2.90;;;;;;;-8.16;55.94;100041.00;4882473;28;20080;-62
2022/12/04 01:49:07;;;;;;;6.05;2.78;;;;;;;-8.19;55.54;100030.72;4881807;28;20373;-60
2022/12/04 01:52:09;;;;;;;10.43;3.85;;;;;;;-8.07;55.77;100028.84;4884762;28;20084;-61
2022/12/04 01:54:50;;;;;;;5.50;2.97;;;;;;;-7.99;56.45;100012.38;4889720;28;20068;-62
2022/12/04 01:57:38;;;;;;;6.65;3.17;;;;;;;-7.87;55.45;100032.44;4913191;28;20252;-61
2022/12/04 02:00:29;;;;;;;4.60;2.75;;;;;;;-8.16;52.71;100023.28;4900223;28;20048;-62
2022/12/04 02:03:10;;;;;;;4.63;2.40;;;;;;;-8.25;50.67;100024.53;4904245;28;20139;-61
2022/12/04 02:08:56;;;;;;;7.47;2.90;;;;;;;-8.31;52.46;100019.13;4901987;28;20048;-62
2022/12/04 02:11:59;;;;;;;6.05;2.70;;;;;;;-8.54;52.70;100009.41;4893698;28;20113;-62
2022/12/04 02:14:55;;;;;;;6.03;2.90;;;;;;;-8.77;53.26;99998.88;4902490;28;20349;-62
2022/12/04 02:18:10;;;;;;;7.25;2.72;;;;;;;-8.68;54.23;99996.88;4856812;28;20226;-62
2022/12/04 02:20:53;;;;;;;5.05;3.03;;;;;;;-8.57;54.06;99999.13;4841429;28;20045;-62
2022/12/04 02:31:34;;;;;;;6.45;3.17;;;;;;;-7.73;54.15;99975.72;4876815;28;20042;-61
2022/12/04 02:34:29;;;;;;;9.57;3.35;;;;;;;-7.40;53.41;99976.56;4851451;28;20423;-61
2022/12/04 02:37:15;;;;;;;6.32;3.03;;;;;;;-7.28;53.02;99970.38;4892303;28;20095;-62
2022/12/04 02:46:11;;;;;;;5.93;3.28;;;;;;;-5.87;51.52;99964.25;4875248;28;20041;-61
2022/12/04 02:49:27;;;;;;;6.95;3.22;;;;;;;-5.50;50.92;99968.41;4882495;28;20112;-61
2022/12/04 02:52:43;;;;;;;6.65;3.00;;;;;;;-5.65;48.18;99968.63;4907984;28;20070;-61
2022/12/04 02:55:54;;;;;;;8.98;2.45;;;;;;;-6.74;49.57;99976.38;4899566;28;20749;-61
2022/12/04 02:58:52;;;;;;;4.47;2.90;;;;;;;-7.68;53.72;99964.16;4849366;28;20237;-61
2022/12/04 03:02:03;;;;;;;6.53;3.08;;;;;;;-7.81;54.72;99977.00;4887519;28;20041;-60
2022/12/04 03:04:49;;;;;;;10.10;2.95;;;;;;;-7.96;55.38;99974.53;4888243;28;20058;-61
2022/12/04 03:14:26;;;;;;;3.80;2.35;;;;;;;-8.21;56.20;99968.91;4884163;28;20053;-61
2022/12/04 03:17:12;;;;;;;5.47;2.75;;;;;;;-9.05;56.17;99831.06;4829714;28;20046;-61
2022/12/04 03:20:04;;;;;;;5.22;2.63;;;;;;;-8.16;55.99;99972.56;4837071;28;20051;-61
2022/12/04 03:22:59;;;;;;;7.20;3.03;;;;;;;-7.93;55.93;99987.34;4834645;28;20073;-61
2022/12/04 03:25:51;;;;;;;4.63;2.30;;;;;;;-8.17;54.25;99988.59;4861127;28;20042;-61
2022/12/04 03:28:41;;;;;;;6.18;2.58;;;;;;;-8.30;55.65;99990.47;4856262;28;20066;-60
2022/12/04 03:31:28;;;;;;;3.75;2.72;;;;;;;-8.54;56.35;99973.94;4885114;28;20045;-61
2022/12/04 03:37:59;;;;;;;3.72;2.00;;;;;;;-9.08;59.27;99987.78;4864656;28;20045;-60
2022/12/04 03:40:47;;;;;;;5.53;2.35;;;;;;;-9.22;60.92;99985.34;4823536;28;20058;-61
2022/12/04 03:43:36;;;;;;;4.35;2.67;;;;;;;-9.25;60.90;99970.00;4859794;28;20162;-61
2022/12/04 03:46:37;;;;;;;7.40;2.45;;;;;;;-9.14;62.92;99998.44;4859178;28;20050;-61
2022/12/04 03:49:28;;;;;;;5.15;2.88;;;;;;;-9.37;65.92;99994.59;4898501;28;20045;-61
2022/12/04 03:52:18;;;;;;;5.45;3.38;;;;;;;-9.46;67.52;99973.81;4906987;28;20053;-61
2022/12/04 03:55:19;;;;;;;4.80;2.50;;;;;;;-9.48;68.70;99978.78;4880921;28;20430;-60
2022/12/04 03:58:27;;;;;;;7.38;2.88;;;;;;;-9.53;69.51;99991.94;4891702;28;20105;-60
2022/12/04 04:01:30;;;;;;;6.75;2.90;;;;;;;-9.42;68.42;99999.38;4879783;28;20118;-61
2022/12/04 04:04:19;;;;;;;7.30;2.83;;;;;;;-9.71;68.05;99947.06;4883029;28;20062;-60
2022/12/04 04:10:17;;;;;;;5.93;2.60;;;;;;;-9.58;68.98;100005.19;4890572;28;20048;-61
2022/12/04 04:25:24;;;;;;;5.38;3.00;;;;;;;-10.01;68.30;99891.41;4897751;28;20049;-60
2022/12/04 04:28:09;;;;;;;5.43;2.45;;;;;;;-9.33;68.45;100006.66;4899964;28;20063;-60
2022/12/04 04:30:43;;;;;;;7.43;2.95;;;;;;;-9.51;67.78;100006.41;4910039;28;20090;-60
2022/12/04 04:33:24;;;;;;;4.63;3.00;;;;;;;-9.64;68.44;100009.88;4892641;28;20302;-61
2022/12/04 04:36:22;;;;;;;6.20;3.35;;;;;;;-9.78;69.13;100015.78;4878340;28;20057;-61
2022/12/04 04:39:09;;;;;;;12.55;5.18;;;;;;;-9.81;70.59;100005.47;4868654;28;20057;-60
2022/12/04 04:42:07;;;;;;;8.07;2.65;;;;;;;-9.88;71.46;100018.50;4909855;28;20042;-60
2022/12/04 04:44:57;;;;;;;6.13;3.10;;;;;;;-10.32;71.86;99953.53;4874222;28;20634;-60
2022/12/04 04:47:36;;;;;;;7.88;3.55;;;;;;;-9.74;72.51;100022.75;4900714;28;20041;-60
2022/12/04 04:53:56;;;;;;;15.60;5.50;;;;;;;-9.89;72.32;100021.81;4810010;28;20045;-61
2022/12/04 04:56:35;;;;;;;8.90;3.50;;;;;;;-9.84;73.39;100040.69;4780955;28;20056;-61
2022/12/04 04:59:25;;;;;;;10.73;4.25;;;;;;;-9.78;73.26;100025.91;4863124;28;20061;-59
2022/12/04 05:05:14;;;;;;;5.53;2.63;;;;;;;-9.68;72.95;100027.28;4862520;28;20065;-61
2022/12/04 05:11:07;;;;;;;12.60;5.68;;;;;;;-9.93;73.27;100035.03;4845937;28;21097;-61
2022/12/04 05:14:04;;;;;;;10.65;4.68;;;;;;;-9.95;73.05;100034.09;4866718;28;20053;-60
2022/12/04 05:16:52;;;;;;;7.93;4.90;;;;;;;-9.87;73.63;100030.38;4872038;28;20313;-60
2022/12/04 05:19:56;;;;;;;6.53;3.78;;;;;;;-9.78;73.95;100041.94;4872698;28;20048;-61
2022/12/04 05:22:41;;;;;;;4.65;2.58;;;;;;;-9.95;73.69;100012.22;4860844;28;20045;-61
2022/12/04 05:25:28;;;;;;;5.80;3.05;;;;;;;-9.77;73.85;100028.50;4859634;28;20050;-60
2022/12/04 05:28:20;;;;;;;7.65;3.40;;;;;;;-9.91;73.72;100018.31;4884442;28;20060;-61
2022/12/04 05:31:09;;;;;;;7.07;3.15;;;;;;;-9.91;73.82;100018.31;4874687;28;20044;-61
2022/12/04 05:36:38;;;;;;;5.43;2.55;;;;;;;-10.06;74.22;100029.28;4883523;28;20118;-61
2022/12/04 05:39:36;;;;;;;9.35;2.72;;;;;;;-9.89;74.57;100052.16;4884715;28;20041;-62
2022/12/04 05:42:37;;;;;;;9.15;3.70;;;;;;;-9.70;74.85;100055.03;4863157;28;20128;-62
2022/12/04 05:45:28;;;;;;;7.20;2.97;;;;;;;-9.69;74.43;100055.91;4898943;28;20038;-61
2022/12/04 05:48:11;;;;;;;8.38;3.05;;;;;;;-9.77;73.87;100057.97;4888566;28;20492;-62
2022/12/04 05:51:12;;;;;;;9.50;3.78;;;;;;;-9.85;74.27;100056.63;4848820;28;20077;-62
2022/12/04 05:53:47;;;;;;;9.18;3.60;;;;;;;-9.83;74.91;100057.59;4838537;28;20041;-62
2022/12/04 05:56:38;;;;;;;5.97;2.63;;;;;;;-9.87;74.83;100061.59;4876267;28;20056;-61
2022/12/04 05:59:12;;;;;;;;;;;;;;;-9.90;75.20;100055.47;4874103;28;20045;-62
2022/12/04 06:06:13;;;;;;;6.05;3.20;;;;;;;-10.43;75.16;100062.38;4882137;28;20083;-61
2022/12/04 06:09:18;;;;;;;5.35;2.47;;;;;;;-10.65;75.49;100051.66;4869356;28;20041;-62
2022/12/04 06:15:05;;;;;;;;;;;;;;;-10.46;76.35;100082.38;4880549;28;20066;-61
2022/12/04 06:18:07;;;;;;;6.97;3.33;;;;;;;-10.45;76.71;100074.03;4875091;28;19922;-61
2022/12/04 06:21:04;;;;;;;11.13;4.25;;;;;;;-10.46;76.29;100072.28;4876745;28;20165;-60
2022/12/04 06:24:08;;;;;;;8.15;3.75;;;;;;;-10.52;76.68;100071.88;4884112;28;20319;-61
2022/12/04 06:26:57;;;;;;;8.05;3.60;;;;;;;-10.38;76.78;100081.97;4896517;28;20065;-60
2022/12/04 06:30:16;;;;;;;8.00;3.35;;;;;;;-10.43;76.85;100080.03;4865284;28;20339;-60
2022/12/04 06:44:57;;;;;;;7.90;4.03;;;;;;;-10.86;77.35;100059.63;4886101;28;20099;-60
2022/12/04 06:50:43;;;;;;;79.40;21.88;;;;;;;-10.83;77.61;100037.84;4885014;28;20045;-61
2022/12/04 06:53:29;;;;;;;26.45;8.95;;;;;;;-10.46;78.04;100105.13;4883384;28;20094;-61
2022/12/04 06:59:10;;;;;;;9.60;4.88;;;;;;;-10.71;77.66;100063.88;4855192;28;20068;-61
2022/12/04 07:01:57;;;;;;;7.70;3.80;;;;;;;-10.36;78.25;100110.72;4876691;28;20071;-61
2022/12/04 07:04:57;;;;;;;12.77;3.83;;;;;;;-10.26;78.18;100116.47;4878437;28;20107;-61
2022/12/04 07:07:38;;;;;;;6.63;2.95;;;;;;;-10.23;77.75;100120.84;4894597;28;20931;-61
2022/12/04 07:10:19;;;;;;;10.18;4.10;;;;;;;-10.23;77.42;100113.25;4907460;28;20060;-61
2022/12/04 07:13:11;;;;;;;7.85;3.20;;;;;;;-10.95;77.35;99973.22;4886508;28;20056;-61
2022/12/04 07:16:02;;;;;;;9.73;4.20;;;;;;;-10.04;77.20;100107.69;4871134;28;20111;-61
2022/12/04 07:18:45;;;;;;;8.52;3.92;;;;;;;-10.11;76.49;100115.66;4850370;28;20062;-62
2022/12/04 07:21:21;;;;;;;9.77;3.60;;;;;;;-10.13;76.61;100123.16;4880443;28;20379;-61
2022/12/04 07:24:02;;;;;;;7.50;3.22;;;;;;;-10.39;76.03;100097.91;4898908;28;20049;-61
2022/12/04 07:26:54;;;;;;;6.80;3.55;;;;;;;-10.35;75.26;100125.13;4882092;28;20054;-62
2022/12/04 07:29:34;;;;;;;9.73;3.60;;;;;;;-10.47;75.48;100126.06;4835001;28;20088;-62
2022/12/04 07:32:25;;;;;;;8.15;3.60;;;;;;;-10.59;75.39;100111.78;4900902;28;20045;-62
2022/12/04 07:35:03;;;;;;;6.32;3.38;;;;;;;-10.63;75.34;100123.34;4842352;28;20049;-62
2022/12/04 07:37:37;;;;;;;9.60;3.88;;;;;;;-10.67;75.04;100107.09;4853591;28;20049;-62
2022/12/04 07:40:47;;;;;;;6.63;3.67;;;;;;;-10.65;75.00;100132.47;4901975;28;20329;-62
2022/12/04 07:43:48;;;;;;;6.43;3.60;;;;;;;-10.70;74.81;100143.91;4905564;28;20053;-61
2022/12/04 07:46:36;;;;;;;9.23;3.40;;;;;;;-11.15;74.16;100094.66;4898159;28;20050;-62
2022/12/04 07:49:22;;;;;;;9.63;3.38;;;;;;;-10.81;74.00;100152.41;4892828;28;20059;-61
2022/12/04 07:52:09;;;;;;;6.60;3.20;;;;;;;-10.93;72.18;100153.34;4857795;28;20056;-61
2022/12/04 07:55:07;;;;;;;8.68;3.13;;;;;;;-11.00;70.99;100148.66;4854361;28;20333;-61
2022/12/04 07:58:16;;;;;;;9.90;4.10;;;;;;;-11.01;69.99;100143.50;4882339;28;20370;-61
2022/12/04 08:01:26;;;;;;;6.43;3.17;;;;;;;-10.91;69.20;100156.84;4877527;28;20045;-61
2022/12/04 08:04:12;;;;;;;8.40;3.55;;;;;;;-11.00;68.42;100156.25;4890826;28;20041;-61
2022/12/04 08:06:59;;;;;;;9.38;4.10;;;;;;;-10.98;68.29;100164.78;4866325;28;20057;-61
2022/12/04 08:10:16;;;;;;;7.53;3.60;;;;;;;-11.06;68.17;100160.84;4908647;28;20084;-61
2022/12/04 08:13:06;;;;;;;7.35;4.78;;;;;;;-11.10;67.61;100151.34;4890991;28;20069;-61
2022/12/04 08:15:54;;;;;;;10.57;4.50;;;;;;;-11.12;67.21;100165.50;4890315;28;20067;-60
2022/12/04 08:18:45;;;;;;;8.45;4.82;;;;;;;-11.16;66.67;100161.00;4875770;28;20066;-61
2022/12/04 08:24:39;;;;;;;8.27;5.07;;;;;;;-11.20;66.31;100161.59;4877792;28;20057;-61
2022/12/04 08:30:30;;;;;;;11.07;4.97;;;;;;;-11.42;66.70;100149.16;4899632;28;20112;-61
2022/12/04 08:33:20;;;;;;;8.85;4.80;;;;;;;-11.68;66.77;100135.63;4904467;28;20045;-61
2022/12/04 08:36:16;;;;;;;14.80;6.35;;;;;;;-11.81;67.24;100143.94;4904261;28;21421;-61
2022/12/04 08:39:04;;;;;;;13.38;5.95;;;;;;;-11.67;67.52;100172.66;4876835;28;20049;-62
2022/12/04 08:41:48;;;;;;;12.07;5.35;;;;;;;-11.69;67.71;100183.41;4884138;28;20049;-61
2022/12/04 08:44:31;;;;;;;12.77;6.40;;;;;;;-11.69;67.60;100183.41;4887158;28;20067;-61
2022/12/04 08:50:42;;;;;;;160.32;45.38;;;;;;;-11.84;68.00;100203.34;4876039;28;20079;-60
2022/12/04 08:53:46;;;;;;;42.42;13.55;;;;;;;-11.91;67.87;100214.66;4909149;28;20696;-61
2022/12/04 08:56:26;;;;;;;24.98;9.85;;;;;;;-11.81;68.23;100217.03;4888667;28;20562;-61
2022/12/04 08:59:16;;;;;;;17.77;7.28;;;;;;;-11.85;68.04;100222.66;4880521;28;20053;-61
2022/12/04 09:02:03;;;;;;;23.40;7.60;;;;;;;-12.14;67.44;100239.84;4857846;28;20073;-62
2022/12/04 09:04:49;;;;;;;45.92;14.13;;;;;;;-12.36;67.65;100240.78;4837739;28;20063;-61
2022/12/04 09:07:45;;;;;;;20.00;8.30;;;;;;;-12.43;68.02;100239.47;4840544;28;20144;-61
2022/12/04 09:10:29;;;;;;;23.98;11.45;;;;;;;-12.25;68.87;100234.91;4887922;28;20053;-62
2022/12/04 09:13:20;;;;;;;19.20;9.85;;;;;;;-12.35;68.30;100237.53;4857418;28;20053;-61
2022/12/04 09:16:08;;;;;;;15.05;7.40;;;;;;;-12.55;67.67;100248.63;4896733;28;20084;-61
2022/12/04 09:22:15;;;;;;;17.77;7.93;;;;;;;-13.10;66.94;100250.38;4911752;28;20041;-62
2022/12/04 09:25:12;;;;;;;30.98;13.35;;;;;;;-13.60;66.27;100254.88;4858433;28;21235;-61
2022/12/04 09:28:08;;;;;;;24.50;10.05;;;;;;;-14.05;66.14;100250.47;4884496;28;20052;-61
2022/12/04 09:31:10;;;;;;;26.25;11.10;;;;;;;-14.71;66.71;100174.00;4856959;28;20108;-61
2022/12/04 09:33:56;;;;;;;35.72;14.18;;;;;;;-14.30;67.00;100264.28;4843133;28;20050;-62
2022/12/04 09:36:51;;;;;;;49.70;18.58;;;;;;;-14.40;67.25;100267.66;4891058;28;20117;-61
2022/12/04 09:39:46;;;;;;;74.05;21.70;;;;;;;-14.58;67.25;100272.09;4879148;28;20046;-61
2022/12/04 09:48:54;;;;;;;25.98;8.80;;;;;;;-14.45;68.84;100279.88;4924273;28;20066;-61
2022/12/04 09:51:30;;;;;;;24.85;8.00;;;;;;;-14.57;68.67;100263.84;4918961;28;20061;-61
2022/12/04 09:54:21;;;;;;;92.53;22.33;;;;;;;-14.54;68.84;100274.13;4892803;28;20041;-62
2022/12/04 09:57:14;;;;;;;206.65;48.70;;;;;;;-14.75;68.79;100254.75;4939259;28;20056;-61
2022/12/04 10:00:16;;;;;;;242.85;59.13;;;;;;;-14.81;68.82;100271.06;4915079;28;20052;-61
2022/12/04 10:03:05;;;;;;;206.27;52.63;;;;;;;-15.09;69.31;100220.25;4893568;28;20079;-61
2022/12/04 10:06:06;;;;;;;134.07;37.30;;;;;;;-15.33;68.98;100204.00;4889061;28;20397;-61
2022/12/04 10:12:51;;;;;;;23.83;10.27;;;;;;;-15.25;69.94;100258.19;4863264;28;20093;-61
2022/12/04 10:19:18;;;;;;;250.23;46.33;;;;;;;-14.92;71.36;100279.31;4255536;27;21270573;-80
2022/12/04 10:22:09;;;;;;;109.93;23.73;;;;;;;-14.61;71.59;100296.94;4993161;27;20354;-80
2022/12/04 10:24:48;;;;;;;33.47;11.75;;;;;;;-14.64;71.53;100241.50;4995858;27;20105;-80
2022/12/04 10:31:06;;;;;;;27.35;9.90;;;;;;;-14.01;71.45;100305.19;5004751;27;20046;-80
2022/12/04 10:33:45;;;;;;;22.77;8.80;;;;;;;-14.14;71.24;100262.28;4983650;27;20289;-81
2022/12/04 10:36:25;;;;;;;13.50;5.65;;;;;;;-13.95;71.73;100230.38;5003091;27;20048;-82
2022/12/04 10:38:59;;;;;;;12.32;5.10;;;;;;;-13.39;71.89;100264.84;4999585;27;20056;-82
2022/12/04 10:41:47;;;;;;;11.55;4.13;;;;;;;-13.54;71.41;100235.25;5005642;27;20051;-81
2022/12/04 10:44:22;;;;;;;10.48;3.97;;;;;;;-13.00;71.18;100316.44;4990707;27;20050;-82
2022/12/04 10:46:59;;;;;;;7.13;4.07;;;;;;;-13.26;71.03;100287.63;5001861;27;20380;-82
2022/12/04 10:49:38;;;;;;;28.35;10.02;;;;;;;-12.81;71.30;100340.63;4992817;27;20046;-83
2022/12/04 10:52:13;;;;;;;21.88;8.70;;;;;;;-13.11;71.65;100272.88;4993594;27;20250;-81
2022/12/04 10:54:52;;;;;;;16.30;8.07;;;;;;;-12.39;72.02;100326.16;4998360;27;20051;-83
2022/12/04 10:57:25;;;;;;;18.65;8.05;;;;;;;-12.32;71.64;100312.41;5001192;27;20372;-84
2022/12/04 10:59:58;;;;;;;11.90;5.53;;;;;;;-12.23;71.42;100324.06;4989507;27;20040;-83
2022/12/04 11:02:38;;;;;;;13.88;4.70;;;;;;;-12.25;71.30;100323.06;5004016;27;20043;-82
2022/12/04 11:05:28;;;;;;;11.93;4.40;;;;;;;-12.27;70.89;100316.16;4989951;27;20119;-82
2022/12/04 11:08:03;;;;;;;15.70;6.18;;;;;;;-12.64;71.28;100253.84;4990268;27;20035;-82
2022/12/04 11:10:40;;;;;;;12.43;5.72;;;;;;;-12.39;71.41;100308.53;4998987;27;20196;-83
2022/12/04 11:13:38;;;;;;;13.70;4.68;;;;;;;-12.62;70.86;100300.13;5003574;27;20057;-82
2022/12/04 11:16:38;;;;;;;80.82;25.40;;;;;;;-13.01;70.24;100284.50;4989579;27;20142;-82
2022/12/04 11:19:24;;;;;;;42.97;13.80;;;;;;;-13.57;69.42;100295.31;4995511;27;20410;-81
2022/12/04 11:22:00;;;;;;;18.50;6.57;;;;;;;-13.85;70.21;100286.31;4991550;27;21472;-80
2022/12/04 11:25:12;;;;;;;44.65;16.58;;;;;;;-13.94;71.45;100281.47;4997899;27;20055;-80
2022/12/04 11:28:40;;;;;;;28.45;11.07;;;;;;;-13.72;71.89;100315.09;4967832;27;20059;-81
2022/12/04 11:31:25;;;;;;;26.60;9.00;;;;;;;-13.60;72.47;100325.25;4939684;27;20051;-81
2022/12/04 11:34:02;;;;;;;85.60;22.23;;;;;;;-13.53;72.71;100322.44;4987174;27;20089;-81
2022/12/04 11:36:40;;;;;;;86.30;22.75;;;;;;;-13.54;72.61;100324.84;4989305;27;20078;-81
2022/12/04 11:39:20;;;;;;;179.95;44.45;;;;;;;-13.58;72.88;100308.63;4960687;27;20211;-80
2022/12/04 11:42:06;;;;;;;134.60;35.58;;;;;;;-13.55;73.20;100318.94;4977910;27;20110;-79
2022/12/04 11:44:37;;;;;;;82.05;24.25;;;;;;;-13.96;73.23;100253.69;4966135;27;20082;-79
2022/12/04 11:47:18;;;;;;;102.13;27.90;;;;;;;-13.59;73.92;100311.91;4990083;27;20055;-80
2022/12/04 11:50:16;;;;;;;83.13;27.13;;;;;;;-13.61;73.79;100298.34;4982592;27;20058;-79
2022/12/04 11:53:04;;;;;;;90.15;30.33;;;;;;;-13.84;74.18;100280.56;4976849;27;20425;-81
2022/12/04 11:55:49;;;;;;;82.43;28.83;;;;;;;-13.74;74.45;100280.53;4979923;27;20044;-80
2022/12/04 11:58:54;;;;;;;51.97;21.67;;;;;;;-13.66;74.36;100284.53;4978003;27;20047;-77
2022/12/04 12:02:21;;;;;;;20.55;7.97;;;;;;;-13.95;74.08;100260.50;4979015;27;20110;-79
2022/12/04 12:05:14;;;;;;;13.93;7.20;;;;;;;-14.09;74.41;100237.53;4981785;27;20044;-81
2022/12/04 12:08:01;;;;;;;12.48;5.47;;;;;;;-14.09;74.35;100266.03;4972338;27;20349;-80
2022/12/04 12:10:48;;;;;;;10.07;5.60;;;;;;;-14.17;74.38;100262.03;4977413;27;20097;-81
2022/12/04 12:13:32;;;;;;;10.20;5.95;;;;;;;-14.31;74.45;100267.56;4981197;27;20038;-80
2022/12/04 12:16:17;;;;;;;9.50;5.47;;;;;;;-14.39;74.54;100277.84;4985719;27;20063;-78
2022/12/04 12:19:00;;;;;;;13.70;7.07;;;;;;;-14.30;74.80;100289.38;4977628;27;20111;-79
2022/12/04 12:22:17;;;;;;;18.17;5.70;;;;;;;-14.41;74.57;100271.81;4981429;27;20050;-80
2022/12/04 12:24:58;;;;;;;7.10;3.55;;;;;;;-14.20;74.76;100291.88;4946790;27;20073;-79
2022/12/04 12:27:50;;;;;;;24.15;12.82;;;;;;;-14.61;74.19;100249.25;4983522;27;20046;-79
2022/12/04 12:30:23;;;;;;;17.30;9.98;;;;;;;-14.68;74.20;100279.59;4979420;27;20095;-79
2022/12/04 12:33:13;;;;;;;9.55;5.93;;;;;;;-14.89;74.65;100289.59;4981906;27;20057;-79
2022/12/04 12:35:57;;;;;;;8.90;4.88;;;;;;;-14.74;74.98;100286.63;4978748;27;20364;-80
2022/12/04 12:38:34;;;;;;;9.50;4.70;;;;;;;-15.11;74.86;100255.97;4984722;27;20073;-78
2022/12/04 12:41:12;;;;;;;10.10;4.18;;;;;;;-15.05;75.23;100246.44;4982208;27;20043;-79
2022/12/04 12:43:52;;;;;;;11.40;4.68;;;;;;;-14.86;75.21;100269.78;4984701;27;20042;-79
2022/12/04 13:00:26;;;;;;;25.60;8.67;;;;;;;-14.85;75.70;100256.53;2593913;27;71874706;-60
2022/12/04 13:03:27;;;;;;;89.07;21.85;;;;;;;-14.76;75.99;100245.50;5059805;28;20078;-60
2022/12/04 13:06:08;;;;;;;100.00;23.52;;;;;;;-14.56;76.16;100270.59;5119055;28;20044;-60
2022/12/04 13:09:17;;;;;;;245.40;46.47;;;;;;;-14.52;75.87;100277.59;5072465;28;20125;-60
2022/12/04 13:12:06;;;;;;;148.10;32.70;;;;;;;-14.56;75.77;100276.47;4928944;28;20048;-61
2022/12/04 13:14:47;;;;;;;191.85;43.45;;;;;;;-14.44;76.18;100286.63;4920506;28;20049;-61
2022/12/04 13:20:39;;;;;;;132.90;36.22;;;;;;;-14.23;76.46;100251.47;4941401;28;20334;-61
2022/12/04 13:23:27;;;;;;;92.22;26.10;;;;;;;-14.00;76.03;100271.81;4905559;28;20044;-61
2022/12/04 13:26:26;;;;;;;42.22;14.35;;;;;;;-13.99;75.96;100265.16;4897279;28;20143;-61
2022/12/04 13:29:26;;;;;;;52.33;17.33;;;;;;;-14.08;75.20;100262.75;4911523;28;20051;-61
2022/12/04 13:40:55;;;;;;;38.38;12.93;;;;;;;-14.24;75.13;100240.56;4937127;28;20109;-60
2022/12/04 13:47:33;;;;;;;14.32;6.25;;;;;;;-14.06;75.99;100261.25;4966233;28;20219;-60
2022/12/04 13:57:32;;;;;;;11.25;4.85;;;;;;;-13.52;75.85;100284.00;4929627;28;20067;-60
2022/12/04 14:00:35;;;;;;;10.07;4.90;;;;;;;-13.61;75.59;100263.16;4899112;28;20048;-61
2022/12/04 14:03:29;;;;;;;10.02;4.55;;;;;;;-13.42;75.63;100279.72;4937313;28;20061;-60
2022/12/04 14:06:09;;;;;;;14.10;4.93;;;;;;;-13.29;75.86;100282.41;4953899;28;20107;-61
2022/12/04 14:08:52;;;;;;;12.10;5.18;;;;;;;-13.17;75.90;100290.00;4916429;28;20052;-60
2022/12/04 14:11:50;;;;;;;25.55;7.85;;;;;;;-13.12;75.94;100284.56;4939146;28;20052;-60
2022/12/04 14:14:45;;;;;;;18.52;6.30;;;;;;;-13.13;75.73;100287.81;4934540;28;20280;-61
2022/12/04 14:17:31;;;;;;;10.00;4.82;;;;;;;-13.22;75.93;100279.59;4962415;28;20131;-60
2022/12/04 14:20:25;;;;;;;11.45;4.60;;;;;;;-13.18;75.99;100266.47;4943481;28;20314;-60
2022/12/04 14:23:28;;;;;;;12.60;5.07;;;;;;;-12.95;76.30;100287.47;4960238;28;20040;-61
2022/12/04 14:26:31;;;;;;;9.30;4.45;;;;;;;-12.88;76.27;100287.19;4953827;28;20049;-60
2022/12/04 14:32:52;;;;;;;7.38;3.60;;;;;;;-13.98;75.75;100142.19;4972025;28;20063;-59
2022/12/04 14:35:35;;;;;;;5.55;3.03;;;;;;;-13.09;75.83;100287.31;4887697;28;20059;-59
2022/12/04 14:38:19;;;;;;;4.88;3.45;;;;;;;-13.27;75.06;100296.00;4944113;28;20170;-59
2022/12/04 14:41:13;;;;;;;6.30;3.40;;;;;;;-13.82;75.43;100296.66;4886659;28;20316;-60
2022/12/04 14:44:00;;;;;;;6.88;3.78;;;;;;;-13.75;76.32;100298.88;4919165;28;20048;-59
2022/12/04 14:47:03;;;;;;;6.43;3.85;;;;;;;-13.76;76.68;100262.81;4925260;28;20041;-59
2022/12/04 14:50:06;;;;;;;5.80;3.58;;;;;;;-13.50;76.56;100282.50;4909468;28;20049;-60
2022/12/04 14:53:08;;;;;;;6.45;3.55;;;;;;;-13.30;76.64;100283.19;4924330;28;20060;-59
2022/12/04 14:56:10;;;;;;;;;;;;;;;;;;;;;
2022/12/04 15:02:13;;;;;;;6.18;3.13;;;;;;;-13.25;76.05;100274.34;4929270;28;20094;-59
2022/12/04 15:05:03;;;;;;;7.38;3.55;;;;;;;-13.24;76.04;100271.03;4896475;28;20066;-60
2022/12/04 15:07:58;;;;;;;8.10;3.40;;;;;;;-13.24;76.02;100271.03;4882550;28;20051;-60
2022/12/04 15:17:08;;;;;;;7.32;3.92;;;;;;;-13.00;75.97;100281.22;4918806;28;20033;-60
2022/12/04 15:19:56;;;;;;;7.90;3.67;;;;;;;-12.95;75.78;100283.34;4911985;28;20044;-60
2022/12/04 15:22:37;;;;;;;9.13;3.63;;;;;;;-12.72;76.34;100277.56;4904788;28;20049;-60
2022/12/04 15:25:26;;;;;;;11.88;3.50;;;;;;;-12.63;76.24;100270.72;4931430;28;20344;-60
2022/12/04 15:28:19;;;;;;;7.40;3.60;;;;;;;-13.29;76.01;100141.63;4921782;28;20044;-60
2022/12/04 15:30:57;;;;;;;6.55;3.78;;;;;;;-12.94;76.10;100168.53;4957806;28;20048;-60
2022/12/04 15:33:55;;;;;;;7.80;3.60;;;;;;;-12.30;76.17;100276.50;4921021;28;20049;-61
2022/12/04 15:37:01;;;;;;;10.05;4.18;;;;;;;-12.27;76.40;100276.72;4916929;28;20040;-60
2022/12/04 15:40:05;;;;;;;8.65;4.05;;;;;;;-12.14;76.57;100272.59;4943824;27;20411;-61
2022/12/04 15:46:29;;;;;;;25.45;8.77;;;;;;;-12.79;75.18;100201.50;4935836;28;20368;-60
2022/12/04 15:49:14;;;;;;;182.57;42.33;;;;;;;-12.68;75.68;100236.78;4960326;28;20089;-60
2022/12/04 15:52:30;;;;;;;92.53;25.73;;;;;;;-12.51;76.27;100250.59;4956409;28;20048;-59
2022/12/04 15:55:25;;;;;;;55.97;16.35;;;;;;;-12.42;76.19;100250.41;4896323;28;20126;-60
2022/12/04 15:58:28;;;;;;;17.42;8.02;;;;;;;-12.38;76.41;100242.31;4907573;28;20045;-60
2022/12/04 16:01:15;;;;;;;16.98;5.85;;;;;;;-12.83;76.07;100150.06;4926319;28;20048;-60
2022/12/04 16:04:09;;;;;;;11.57;5.47;;;;;;;-12.38;75.72;100247.34;4897869;28;20036;-60